Time;durP1;ratioP1;P1;durP2;ratioP2;P2;SDS_P1;SDS_P2;PMS_P1;PMS_P2;Temp;Humidity;BMP_temperature;BMP_pressure;BME280_temperature;BME280_humidity;BME280_pressure;Samples;Min_cycle;Max_cycle;Signal;HPM_P1;HPM_P2
2021/06/14 00:01:23;;;;;;;8.25;7.25;;;24.00;96.70;;;;;;5040886;28;20037;-74
2021/06/14 00:03:52;;;;;;;8.20;7.40;;;24.10;96.70;;;;;;5025061;28;20707;-74
2021/06/14 00:06:20;;;;;;;8.57;7.55;;;24.30;96.70;;;;;;5039304;28;20533;-75
2021/06/14 00:08:50;;;;;;;8.63;7.70;;;24.30;96.70;;;;;;5038322;28;20042;-75
2021/06/14 00:11:20;;;;;;;10.02;7.25;;;24.30;96.70;;;;;;5040543;28;20048;-75
2021/06/14 00:13:49;;;;;;;7.88;7.07;;;24.40;96.70;;;;;;5039433;28;20406;-75
2021/06/14 00:16:20;;;;;;;7.82;7.15;;;24.40;96.70;;;;;;5055332;28;20045;-75
2021/06/14 00:18:49;;;;;;;9.32;6.85;;;24.40;96.70;;;;;;5042137;28;20053;-75
2021/06/14 00:21:18;;;;;;;7.80;7.00;;;24.40;96.70;;;;;;5046054;28;20098;-75
2021/06/14 00:23:49;;;;;;;8.05;7.00;;;24.40;96.70;;;;;;5059737;28;20049;-75
2021/06/14 00:26:19;;;;;;;8.40;7.18;;;24.40;96.70;;;;;;5041383;28;20064;-75
2021/06/14 00:28:48;;;;;;;9.10;7.00;;;24.30;96.70;;;;;;5048321;28;20106;-75
2021/06/14 00:31:18;;;;;;;8.63;6.93;;;24.30;96.70;;;;;;5045021;28;20043;-75
2021/06/14 00:33:48;;;;;;;7.38;6.68;;;24.40;96.70;;;;;;5042418;28;20068;-75
2021/06/14 00:36:18;;;;;;;8.10;7.40;;;24.50;96.70;;;;;;5044728;28;20037;-75
2021/06/14 00:38:49;;;;;;;8.68;7.80;;;24.40;96.70;;;;;;5043602;28;20098;-75
2021/06/14 00:41:19;;;;;;;8.55;7.20;;;24.30;96.70;;;;;;5038335;28;20453;-75
2021/06/14 00:43:48;;;;;;;7.93;7.07;;;24.40;96.70;;;;;;5044820;28;20033;-74
2021/06/14 00:46:18;;;;;;;8.40;7.63;;;24.40;96.70;;;;;;5045602;28;20128;-75
2021/06/14 00:48:47;;;;;;;7.85;7.00;;;24.50;96.70;;;;;;5047359;28;20053;-75
2021/06/14 00:51:17;;;;;;;8.82;6.95;;;24.50;96.70;;;;;;5041960;28;20234;-75
2021/06/14 00:53:55;;;;;;;9.25;7.53;;;24.40;96.70;;;;;;5041529;28;20124;-75
2021/06/14 00:56:31;;;;;;;7.43;6.72;;;24.30;96.70;;;;;;5043255;28;20041;-75
2021/06/14 00:58:59;;;;;;;10.15;8.07;;;24.30;96.70;;;;;;5043573;28;20246;-75
2021/06/14 01:01:27;;;;;;;8.68;7.13;;;24.40;96.70;;;;;;5042101;28;20048;-75
2021/06/14 01:03:59;;;;;;;8.35;6.88;;;24.40;96.70;;;;;;5042382;28;20053;-75
2021/06/14 01:06:28;;;;;;;8.20;7.40;;;24.40;96.70;;;;;;5037810;28;20144;-75
2021/06/14 01:08:56;;;;;;;7.60;7.00;;;24.40;96.70;;;;;;5043189;28;20043;-75
2021/06/14 01:11:34;;;;;;;8.80;7.63;;;24.40;96.70;;;;;;5042386;28;20127;-75
2021/06/14 01:14:10;;;;;;;8.07;7.38;;;24.30;96.70;;;;;;5043764;28;20033;-75
2021/06/14 01:16:47;;;;;;;8.93;7.32;;;24.30;96.70;;;;;;5045047;28;20418;-76
2021/06/14 01:19:32;;;;;;;8.45;7.65;;;24.20;96.70;;;;;;5040255;28;20052;-75
2021/06/14 01:22:29;;;;;;;8.65;7.57;;;24.30;96.70;;;;;;5042105;28;20045;-75
2021/06/14 01:25:06;;;;;;;7.68;6.93;;;24.20;96.70;;;;;;5044185;28;20037;-75
2021/06/14 01:27:43;;;;;;;9.77;8.60;;;24.30;96.70;;;;;;5043267;28;20052;-75
2021/06/14 01:30:24;;;;;;;9.10;8.20;;;24.30;96.70;;;;;;5042567;28;20394;-76
2021/06/14 01:32:56;;;;;;;8.20;7.40;;;24.10;96.70;;;;;;5042997;28;20506;-75
2021/06/14 01:35:32;;;;;;;8.25;6.43;;;24.00;96.70;;;;;;5026178;28;20495;-75
2021/06/14 01:38:05;;;;;;;9.73;7.43;;;24.10;96.70;;;;;;5043489;28;20107;-75
2021/06/14 01:40:36;;;;;;;10.10;7.68;;;24.30;96.70;;;;;;5041623;28;20797;-75
2021/06/14 01:43:10;;;;;;;8.20;7.28;;;24.30;96.70;;;;;;5028198;28;20049;-75
2021/06/14 01:45:44;;;;;;;8.38;7.57;;;24.10;96.70;;;;;;5042135;28;20055;-75
2021/06/14 01:48:14;;;;;;;8.40;7.32;;;24.10;96.70;;;;;;5042771;28;20136;-75
2021/06/14 01:50:43;;;;;;;8.52;7.72;;;24.10;96.70;;;;;;5045612;28;20040;-75
2021/06/14 01:53:13;;;;;;;8.50;7.70;;;24.20;96.70;;;;;;5040196;28;20144;-75
2021/06/14 01:55:46;;;;;;;7.20;6.47;;;24.20;96.70;;;;;;5043737;28;20394;-75
2021/06/14 01:58:30;;;;;;;8.85;7.97;;;24.20;96.70;;;;;;5040461;28;20485;-75
2021/06/14 02:01:24;;;;;;;9.15;8.25;;;24.10;96.70;;;;;;5044904;28;20049;-75
2021/06/14 02:04:13;;;;;;;8.33;7.13;;;24.10;96.70;;;;;;5040586;28;20045;-75
2021/06/14 02:07:22;;;;;;;9.07;8.27;;;24.10;96.70;;;;;;5040573;28;20034;-75
2021/06/14 02:10:04;;;;;;;9.35;8.45;;;24.10;96.70;;;;;;5040193;28;20048;-75
2021/06/14 02:12:37;;;;;;;8.45;7.75;;;24.00;96.70;;;;;;5039632;28;20386;-75
2021/06/14 02:15:11;;;;;;;10.52;7.82;;;24.00;96.70;;;;;;5042761;28;20029;-75
2021/06/14 02:17:43;;;;;;;9.93;9.00;;;24.10;96.70;;;;;;5026520;28;20496;-75
2021/06/14 02:20:15;;;;;;;9.45;7.78;;;24.10;96.70;;;;;;5045492;28;20143;-75
2021/06/14 02:22:44;;;;;;;9.32;8.43;;;24.10;96.70;;;;;;5042757;28;20518;-75
2021/06/14 02:25:13;;;;;;;8.88;8.05;;;24.20;96.70;;;;;;5041692;28;20044;-75
2021/06/14 02:27:43;;;;;;;11.60;9.50;;;24.30;96.70;;;;;;5042610;28;20477;-75
2021/06/14 02:30:22;;;;;;;9.55;8.68;;;24.40;96.70;;;;;;5030162;28;20394;-74
2021/06/14 02:32:58;;;;;;;9.63;8.63;;;24.30;96.70;;;;;;5044703;28;20075;-75
2021/06/14 02:35:28;;;;;;;10.30;9.35;;;24.20;96.70;;;;;;5039104;28;20128;-75
2021/06/14 02:38:01;;;;;;;10.57;9.48;;;24.10;96.70;;;;;;5043151;28;20029;-75
2021/06/14 02:40:32;;;;;;;10.20;9.30;;;24.10;96.70;;;;;;5038840;28;20079;-75
2021/06/14 02:43:04;;;;;;;10.55;9.05;;;24.00;96.70;;;;;;5042090;28;20459;-75
2021/06/14 02:45:37;;;;;;;17.38;9.15;;;24.10;96.70;;;;;;5040865;28;20523;-75
2021/06/14 02:48:15;;;;;;;9.48;8.40;;;24.00;96.70;;;;;;5041160;28;20453;-75
2021/06/14 02:50:47;;;;;;;10.77;9.02;;;24.00;96.70;;;;;;5036543;28;20041;-75
2021/06/14 02:53:18;;;;;;;9.13;7.82;;;24.00;96.70;;;;;;5026365;28;20056;-75
2021/06/14 02:55:55;;;;;;;9.85;8.82;;;24.00;96.70;;;;;;5042462;28;20140;-75
2021/06/14 02:58:31;;;;;;;10.73;8.60;;;24.00;96.70;;;;;;5043332;28;20053;-75
2021/06/14 03:01:03;;;;;;;9.00;8.00;;;24.10;96.70;;;;;;5042308;28;20045;-75
2021/06/14 03:03:34;;;;;;;9.07;8.15;;;24.10;96.70;;;;;;5044357;28;20091;-75
2021/06/14 03:06:05;;;;;;;9.73;8.73;;;24.00;96.70;;;;;;5038471;28;20063;-75
2021/06/14 03:08:37;;;;;;;11.38;8.85;;;24.10;96.70;;;;;;5043452;28;20036;-75
2021/06/14 03:11:08;;;;;;;12.90;9.40;;;24.10;96.70;;;;;;5041520;28;20049;-75
2021/06/14 03:13:45;;;;;;;9.35;8.55;;;24.00;96.70;;;;;;5040836;28;20048;-76
2021/06/14 03:16:22;;;;;;;9.68;8.68;;;24.10;96.70;;;;;;5024663;28;20572;-75
2021/06/14 03:18:55;;;;;;;10.77;9.15;;;24.20;96.70;;;;;;5040089;28;20045;-75
2021/06/14 03:21:29;;;;;;;9.77;8.55;;;24.20;96.70;;;;;;5021691;28;20049;-75
2021/06/14 03:24:00;;;;;;;10.90;9.82;;;24.30;96.70;;;;;;5036758;28;20406;-75
2021/06/14 03:26:33;;;;;;;10.40;9.23;;;24.30;96.70;;;;;;5053343;28;20163;-75
2021/06/14 03:29:05;;;;;;;10.48;8.30;;;24.30;96.70;;;;;;5039542;28;20041;-75
2021/06/14 03:31:39;;;;;;;11.60;10.18;;;24.30;96.70;;;;;;5037927;28;20037;-75
2021/06/14 03:34:11;;;;;;;13.48;10.10;;;24.30;96.70;;;;;;5026043;28;20131;-75
2021/06/14 03:36:42;;;;;;;11.48;9.93;;;24.30;96.70;;;;;;5040765;28;20037;-75
2021/06/14 03:39:15;;;;;;;11.73;9.70;;;24.30;96.70;;;;;;5023022;28;20052;-75
2021/06/14 03:41:43;;;;;;;13.13;9.57;;;24.20;96.70;;;;;;5039218;28;20114;-75
2021/06/14 03:44:13;;;;;;;10.75;9.77;;;24.30;96.70;;;;;;5041238;28;20041;-75
2021/06/14 03:46:42;;;;;;;10.00;9.00;;;24.30;96.70;;;;;;5043147;28;20040;-74
2021/06/14 03:49:11;;;;;;;16.52;9.80;;;24.30;96.70;;;;;;5043164;28;20047;-75
2021/06/14 03:51:45;;;;;;;14.20;10.38;;;24.30;96.70;;;;;;5038028;28;20609;-75
2021/06/14 03:54:13;;;;;;;10.77;9.77;;;24.30;96.70;;;;;;5041272;28;20037;-75
2021/06/14 03:56:43;;;;;;;12.55;10.63;;;24.20;96.70;;;;;;5027655;28;20048;-75
2021/06/14 03:59:13;;;;;;;12.63;11.30;;;24.20;96.70;;;;;;5040652;28;20095;-75
2021/06/14 04:01:44;;;;;;;11.88;10.20;;;24.20;96.70;;;;;;5041154;28;20064;-75
2021/06/14 04:04:38;;;;;;;12.30;10.90;;;24.30;96.70;;;;;;5042275;28;20640;-75
2021/06/14 04:07:30;;;;;;;12.45;10.23;;;24.20;96.70;;;;;;5038318;28;20395;-75
2021/06/14 04:10:00;;;;;;;12.80;11.13;;;24.30;96.70;;;;;;5016643;28;20041;-75
2021/06/14 04:12:29;;;;;;;20.30;11.95;;;24.30;96.70;;;;;;5024757;28;20443;-75
2021/06/14 04:14:59;;;;;;;12.15;10.63;;;24.10;96.70;;;;;;5038192;28;20082;-75
2021/06/14 04:17:30;;;;;;;12.52;11.23;;;24.00;96.70;;;;;;5037386;28;20098;-75
2021/06/14 04:19:59;;;;;;;12.63;11.30;;;24.00;96.70;;;;;;5040387;28;20041;-75
2021/06/14 04:22:28;;;;;;;13.55;12.27;;;24.00;96.70;;;;;;5043443;28;20033;-75
2021/06/14 04:24:57;;;;;;;14.00;12.07;;;23.90;96.70;;;;;;5041453;28;20064;-75
2021/06/14 04:27:27;;;;;;;13.95;12.52;;;23.90;96.70;;;;;;5038839;28;20140;-75
2021/06/14 04:29:56;;;;;;;13.90;12.50;;;23.90;96.70;;;;;;5036908;28;20048;-75
2021/06/14 04:32:25;;;;;;;13.63;12.32;;;23.80;96.70;;;;;;5040592;28;20043;-75
2021/06/14 04:35:34;;;;;;;13.15;11.77;;;23.80;96.70;;;;;;5042987;28;20079;-76
2021/06/14 04:46:22;;;;;;;14.13;12.82;;;23.70;96.70;;;;;;4993955;28;20186;-76
2021/06/14 04:52:57;;;;;;;14.38;12.98;;;23.60;96.70;;;;;;4995631;28;20045;-76
2021/06/14 05:03:23;;;;;;;15.10;13.70;;;23.70;96.70;;;;;;5002544;28;20080;-76
2021/06/14 05:05:51;;;;;;;14.70;13.23;;;23.70;96.70;;;;;;4985284;28;20053;-75
2021/06/14 05:08:20;;;;;;;15.77;13.85;;;23.70;96.70;;;;;;4971424;28;20050;-76
2021/06/14 05:10:49;;;;;;;14.13;12.73;;;23.70;96.70;;;;;;4985894;28;20049;-75
2021/06/14 05:13:18;;;;;;;14.45;12.95;;;23.60;96.70;;;;;;4998957;28;20140;-75
2021/06/14 05:15:46;;;;;;;14.18;12.85;;;23.60;96.70;;;;;;5020239;28;20063;-76
2021/06/14 05:18:15;;;;;;;14.88;13.48;;;23.60;96.70;;;;;;5046696;28;20461;-75
2021/06/14 05:20:45;;;;;;;14.88;13.43;;;23.60;96.70;;;;;;5040817;28;20095;-76
2021/06/14 05:23:14;;;;;;;15.02;13.57;;;23.60;96.70;;;;;;5047024;28;20597;-76
2021/06/14 05:25:42;;;;;;;15.05;13.68;;;23.60;96.70;;;;;;5041813;28;20045;-75
2021/06/14 05:28:11;;;;;;;14.65;13.15;;;23.60;96.70;;;;;;5043432;28;20045;-76
2021/06/14 05:30:39;;;;;;;15.60;13.65;;;23.70;96.70;;;;;;5044690;28;20052;-76
2021/06/14 05:33:08;;;;;;;15.60;14.07;;;23.80;96.70;;;;;;5048757;28;20037;-76
2021/06/14 05:35:36;;;;;;;15.20;13.63;;;23.90;96.70;;;;;;5041521;28;20256;-76
2021/06/14 05:38:06;;;;;;;15.25;13.75;;;23.90;96.70;;;;;;5046551;28;20029;-76
2021/06/14 05:40:35;;;;;;;17.08;14.80;;;24.00;96.70;;;;;;5040936;28;20483;-76
2021/06/14 05:43:04;;;;;;;15.50;13.50;;;24.00;96.70;;;;;;5044806;28;20037;-76
2021/06/14 05:45:32;;;;;;;14.93;13.43;;;24.00;96.70;;;;;;5041338;28;20033;-76
2021/06/14 05:48:01;;;;;;;13.52;12.23;;;24.00;96.70;;;;;;5042145;28;20045;-76
2021/06/14 05:50:31;;;;;;;13.93;12.60;;;24.00;96.70;;;;;;5043243;28;21070;-76
2021/06/14 05:52:59;;;;;;;14.98;12.73;;;24.00;96.70;;;;;;5047437;28;20041;-76
2021/06/14 05:55:29;;;;;;;14.35;12.95;;;24.00;96.70;;;;;;5046778;28;20053;-76
2021/06/14 05:57:58;;;;;;;14.13;12.60;;;24.00;96.70;;;;;;5044504;28;20099;-76
2021/06/14 06:00:27;;;;;;;14.38;12.88;;;24.10;96.70;;;;;;5043194;28;20226;-76
2021/06/14 06:02:56;;;;;;;14.18;12.25;;;24.10;96.70;;;;;;5047112;28;20036;-76
2021/06/14 06:05:24;;;;;;;15.07;13.52;;;24.10;96.70;;;;;;5044402;28;20482;-76
2021/06/14 06:07:53;;;;;;;13.50;12.20;;;24.10;96.70;;;;;;5039820;28;20065;-76
2021/06/14 06:10:21;;;;;;;14.85;13.38;;;24.10;96.70;;;;;;5040009;28;20446;-76
2021/06/14 06:12:52;;;;;;;17.65;14.05;;;24.00;96.70;;;;;;5042706;28;20151;-76
2021/06/14 06:15:21;;;;;;;15.25;13.75;;;24.10;96.70;;;;;;5043792;28;20053;-75
2021/06/14 06:17:49;;;;;;;14.40;12.90;;;24.10;96.70;;;;;;5044496;28;20044;-76
2021/06/14 06:20:18;;;;;;;14.20;12.88;;;24.20;96.70;;;;;;5040654;28;20056;-76
2021/06/14 06:22:47;;;;;;;14.73;13.05;;;24.30;96.70;;;;;;5039494;28;20049;-75
2021/06/14 06:25:18;;;;;;;15.13;13.57;;;24.40;96.70;;;;;;5046748;28;20056;-76
2021/06/14 06:27:50;;;;;;;14.38;12.93;;;24.40;96.70;;;;;;5043239;28;20044;-77
2021/06/14 06:30:26;;;;;;;15.02;13.18;;;24.40;96.70;;;;;;5048406;28;20133;-76
2021/06/14 06:32:54;;;;;;;16.70;15.05;;;24.30;96.70;;;;;;5046829;28;20429;-76
2021/06/14 06:35:23;;;;;;;13.95;12.60;;;24.40;96.70;;;;;;5026515;28;20136;-76
2021/06/14 06:37:51;;;;;;;15.70;14.13;;;24.40;96.70;;;;;;5041986;28;20447;-75
2021/06/14 06:40:20;;;;;;;15.63;14.13;;;24.50;96.70;;;;;;5038757;28;20045;-76
2021/06/14 06:42:51;;;;;;;16.40;13.00;;;24.50;96.70;;;;;;5039280;28;20410;-76
2021/06/14 06:45:20;;;;;;;15.05;13.65;;;24.50;96.70;;;;;;5043785;28;20041;-76
2021/06/14 06:47:51;;;;;;;15.70;13.90;;;24.60;96.70;;;;;;5042233;28;20639;-76
2021/06/14 06:50:19;;;;;;;14.75;13.45;;;24.70;96.70;;;;;;5044382;28;20052;-75
2021/06/14 06:52:48;;;;;;;15.43;13.50;;;24.70;96.70;;;;;;5028523;28;20124;-76
2021/06/14 06:55:17;;;;;;;15.70;14.10;;;24.70;96.70;;;;;;5040079;28;20095;-76
2021/06/14 06:57:45;;;;;;;14.85;13.43;;;24.70;96.70;;;;;;5034909;28;20106;-75
2021/06/14 07:00:16;;;;;;;16.17;14.43;;;24.70;96.70;;;;;;5040036;28;20044;-76
2021/06/14 07:02:45;;;;;;;15.15;13.55;;;24.70;96.70;;;;;;5023913;28;20045;-76
2021/06/14 07:05:35;;;;;;;15.38;13.85;;;24.90;96.70;;;;;;5039877;28;20039;-76
2021/06/14 07:08:04;;;;;;;17.63;15.77;;;24.90;96.70;;;;;;5029678;28;20519;-75
2021/06/14 07:10:33;;;;;;;15.68;14.05;;;24.90;96.70;;;;;;5036320;28;20041;-75
2021/06/14 07:13:01;;;;;;;16.65;14.95;;;25.00;96.70;;;;;;5040085;28;20502;-75
2021/06/14 07:15:30;;;;;;;17.13;15.35;;;24.90;96.70;;;;;;5040023;28;20096;-75
2021/06/14 07:17:59;;;;;;;16.00;14.40;;;25.00;96.70;;;;;;5041063;28;20041;-75
2021/06/14 07:20:28;;;;;;;16.40;14.73;;;25.00;96.70;;;;;;5042580;28;20041;-75
2021/06/14 07:22:58;;;;;;;15.20;13.77;;;25.20;96.70;;;;;;5045814;28;20059;-75
2021/06/14 07:25:26;;;;;;;17.80;16.00;;;25.30;96.70;;;;;;5034088;28;20410;-76
2021/06/14 07:27:55;;;;;;;16.30;14.25;;;25.40;96.70;;;;;;5037554;28;20048;-75
2021/06/14 07:30:32;;;;;;;16.10;14.50;;;25.40;96.70;;;;;;5041309;28;20033;-75
2021/06/14 07:33:01;;;;;;;15.77;14.27;;;25.40;96.70;;;;;;5041858;28;20041;-75
2021/06/14 07:35:50;;;;;;;16.95;15.35;;;25.40;96.70;;;;;;5037804;28;20211;-76
2021/06/14 07:38:20;;;;;;;15.07;13.68;;;25.50;96.70;;;;;;5036669;28;20394;-75
2021/06/14 07:40:49;;;;;;;15.50;14.02;;;25.60;96.70;;;;;;5035003;28;20076;-75
2021/06/14 07:43:18;;;;;;;16.92;15.15;;;25.70;96.70;;;;;;5040873;28;20037;-75
2021/06/14 07:45:48;;;;;;;16.88;15.38;;;25.70;96.70;;;;;;5040547;28;20402;-75
2021/06/14 07:48:17;;;;;;;17.48;15.57;;;25.60;96.70;;;;;;5023980;28;20061;-75
2021/06/14 07:50:46;;;;;;;15.75;14.35;;;25.60;96.70;;;;;;5043735;28;20051;-75
2021/06/14 07:53:16;;;;;;;18.15;16.40;;;25.90;96.70;;;;;;5037796;28;20110;-75
2021/06/14 07:55:46;;;;;;;19.17;17.42;;;25.80;96.70;;;;;;5039881;28;20048;-75
2021/06/14 07:58:15;;;;;;;16.42;14.45;;;25.90;96.70;;;;;;5041930;28;20041;-75
2021/06/14 08:00:44;;;;;;;15.48;13.98;;;25.90;96.70;;;;;;5039038;28;20037;-75
2021/06/14 08:03:12;;;;;;;15.57;13.95;;;26.00;96.70;;;;;;5039177;28;20072;-75
2021/06/14 08:05:41;;;;;;;15.60;14.10;;;26.00;96.70;;;;;;5042145;28;20041;-75
2021/06/14 08:08:14;;;;;;;16.42;14.77;;;26.10;96.70;;;;;;5038198;28;20056;-75
2021/06/14 08:10:46;;;;;;;17.48;15.77;;;26.10;96.70;;;;;;5041128;28;20537;-75
2021/06/14 08:13:15;;;;;;;17.30;15.60;;;26.10;96.70;;;;;;5037524;28;20072;-74
2021/06/14 08:15:43;;;;;;;17.95;16.23;;;26.10;96.70;;;;;;5039043;28;20044;-75
2021/06/14 08:21:20;;;;;;;18.85;16.70;;;25.80;96.70;;;;;;5041452;28;20087;-75
2021/06/14 08:26:37;;;;;;;17.95;16.13;;;25.60;96.70;;;;;;5037684;28;20068;-73
2021/06/14 08:29:05;;;;;;;16.05;14.55;;;25.60;96.70;;;;;;5041644;28;20154;-73
2021/06/14 08:31:35;;;;;;;18.15;16.33;;;25.70;96.70;;;;;;5037848;28;20029;-74
2021/06/14 08:34:04;;;;;;;18.25;16.55;;;25.80;96.70;;;;;;5039202;28;20506;-74
2021/06/14 08:36:33;;;;;;;18.38;16.52;;;25.80;96.70;;;;;;5040156;28;20051;-74
2021/06/14 08:39:02;;;;;;;19.85;16.58;;;25.80;96.70;;;;;;5042090;28;20483;-73
2021/06/14 08:41:31;;;;;;;19.48;14.80;;;26.00;96.70;;;;;;5039506;28;20406;-73
2021/06/14 08:44:01;;;;;;;17.92;16.33;;;26.20;96.70;;;;;;5036464;28;20041;-73
2021/06/14 08:46:29;;;;;;;19.08;16.73;;;26.30;96.70;;;;;;5040924;28;20067;-73
2021/06/14 08:48:59;;;;;;;20.50;18.02;;;26.40;96.70;;;;;;5044855;28;20112;-73
2021/06/14 08:51:28;;;;;;;20.95;18.85;;;26.40;96.70;;;;;;5041994;28;20470;-73
2021/06/14 08:53:58;;;;;;;21.25;18.88;;;26.30;96.70;;;;;;5026875;28;20486;-74
2021/06/14 08:56:27;;;;;;;21.38;19.17;;;26.40;96.70;;;;;;5043012;28;20048;-74
2021/06/14 08:58:57;;;;;;;21.88;19.58;;;26.40;96.70;;;;;;5044471;28;20418;-74
2021/06/14 09:01:27;;;;;;;21.00;18.67;;;26.50;96.70;;;;;;5041505;28;20057;-74
2021/06/14 09:03:56;;;;;;;21.73;19.48;;;26.60;96.70;;;;;;5052851;28;20064;-74
2021/06/14 09:06:25;;;;;;;21.40;19.13;;;26.70;96.70;;;;;;5042358;28;20068;-75
2021/06/14 09:08:58;;;;;;;22.45;19.88;;;26.60;96.70;;;;;;5040136;28;20049;-74
2021/06/14 09:11:28;;;;;;;24.15;19.35;;;26.60;96.70;;;;;;5035638;28;20397;-74
2021/06/14 09:13:58;;;;;;;24.80;22.17;;;26.80;96.70;;;;;;5041935;28;20033;-74
2021/06/14 09:16:31;;;;;;;24.50;21.35;;;26.80;96.70;;;;;;5042274;28;20414;-75
2021/06/14 09:19:00;;;;;;;24.85;21.02;;;26.80;96.70;;;;;;5042991;28;20065;-75
2021/06/14 09:21:29;;;;;;;23.70;21.40;;;26.80;96.70;;;;;;5044341;28;20124;-74
2021/06/14 09:23:59;;;;;;;22.35;20.08;;;26.90;96.70;;;;;;5036952;28;20037;-74
2021/06/14 09:26:30;;;;;;;23.48;20.55;;;26.90;96.70;;;;;;5044658;28;20514;-74
2021/06/14 09:29:00;;;;;;;26.77;21.95;;;26.90;96.70;;;;;;5038158;28;20061;-74
2021/06/14 09:31:40;;;;;;;23.88;20.08;;;26.90;96.70;;;;;;5040280;28;20120;-74
2021/06/14 09:34:10;;;;;;;21.90;17.38;;;27.00;96.70;;;;;;5038337;28;20085;-74
2021/06/14 09:36:38;;;;;;;23.02;19.30;;;27.10;96.70;;;;;;5041411;28;20047;-74
2021/06/14 09:39:10;;;;;;;21.67;19.48;;;27.30;96.70;;;;;;5041813;28;20049;-74
2021/06/14 09:41:39;;;;;;;28.30;21.33;;;27.30;96.70;;;;;;5039963;28;20510;-74
2021/06/14 09:44:08;;;;;;;23.20;20.77;;;27.30;96.70;;;;;;5056161;28;20631;-75
2021/06/14 09:46:38;;;;;;;21.70;19.45;;;27.30;96.70;;;;;;5044499;28;20067;-75
2021/06/14 09:49:17;;;;;;;23.00;19.77;;;27.40;96.70;;;;;;5022690;28;20091;-74
2021/06/14 09:51:50;;;;;;;21.17;18.27;;;27.40;96.70;;;;;;5026783;28;20450;-75
2021/06/14 09:54:25;;;;;;;19.80;17.83;;;27.50;96.70;;;;;;5041330;28;20040;-75
2021/06/14 09:56:54;;;;;;;27.50;19.90;;;27.60;96.70;;;;;;5058295;28;20495;-75
2021/06/14 09:59:26;;;;;;;23.27;18.27;;;27.70;96.70;;;;;;5041533;28;20033;-74
2021/06/14 10:02:05;;;;;;;22.42;17.27;;;27.80;96.70;;;;;;5038240;28;20057;-74
2021/06/14 10:04:33;;;;;;;21.02;16.52;;;27.90;96.70;;;;;;5038448;28;20048;-75
2021/06/14 10:07:12;;;;;;;18.67;16.70;;;27.80;96.70;;;;;;5044115;28;20616;-75
2021/06/14 10:09:43;;;;;;;17.98;16.27;;;27.90;96.70;;;;;;5044946;28;20036;-74
2021/06/14 10:12:24;;;;;;;19.25;16.02;;;28.00;96.70;;;;;;5037202;28;20132;-74
2021/06/14 10:14:55;;;;;;;17.88;15.88;;;28.10;96.70;;;;;;5026882;28;20045;-74
2021/06/14 10:17:38;;;;;;;18.35;16.40;;;28.10;96.70;;;;;;5041455;28;20045;-74
2021/06/14 10:20:15;;;;;;;17.15;15.35;;;28.30;96.70;;;;;;5043702;28;20051;-75
2021/06/14 10:22:48;;;;;;;17.73;15.65;;;28.40;96.70;;;;;;5043215;28;20074;-75
2021/06/14 10:25:33;;;;;;;19.05;15.60;;;28.40;96.70;;;;;;5043354;28;20088;-75
2021/06/14 10:28:03;;;;;;;18.50;16.42;;;28.30;96.70;;;;;;5041099;28;20051;-75
2021/06/14 10:30:31;;;;;;;19.02;16.10;;;28.40;96.70;;;;;;5041282;28;20055;-75
2021/06/14 10:33:02;;;;;;;17.83;14.88;;;28.50;96.70;;;;;;5036936;28;20069;-75
2021/06/14 10:35:32;;;;;;;16.15;14.65;;;28.60;96.70;;;;;;5042682;28;20052;-75
2021/06/14 10:38:03;;;;;;;16.35;14.02;;;28.80;96.70;;;;;;5043021;28;21065;-74
2021/06/14 10:40:34;;;;;;;16.08;14.40;;;29.10;96.70;;;;;;5024413;28;20056;-74
2021/06/14 10:43:04;;;;;;;14.18;12.75;;;29.20;96.70;;;;;;5038109;28;20033;-75
2021/06/14 10:45:33;;;;;;;14.23;12.52;;;29.30;96.70;;;;;;5040023;28;20067;-75
2021/06/14 10:48:06;;;;;;;13.35;12.05;;;29.30;96.70;;;;;;5039777;28;20486;-74
2021/06/14 10:50:35;;;;;;;12.20;11.02;;;29.30;96.70;;;;;;5042158;28;20040;-74
2021/06/14 10:53:04;;;;;;;11.55;10.45;;;29.30;96.70;;;;;;5042199;28;20041;-74
2021/06/14 10:55:37;;;;;;;11.65;10.45;;;29.50;96.70;;;;;;5040964;28;20041;-75
2021/06/14 10:58:15;;;;;;;10.95;9.85;;;29.60;96.70;;;;;;5041120;28;20487;-74
2021/06/14 11:00:44;;;;;;;9.88;9.07;;;29.60;96.70;;;;;;5032755;28;20044;-75
2021/06/14 11:03:15;;;;;;;12.10;10.48;;;29.70;96.70;;;;;;5043109;28;20064;-74
2021/06/14 11:05:45;;;;;;;10.23;9.20;;;29.90;96.70;;;;;;5038414;28;20059;-74
2021/06/14 11:08:16;;;;;;;10.70;9.60;;;29.90;96.70;;;;;;5036223;28;20167;-75
2021/06/14 11:10:48;;;;;;;11.13;10.02;;;30.00;96.70;;;;;;5026421;28;20061;-74
2021/06/14 11:13:17;;;;;;;10.07;9.18;;;30.10;96.70;;;;;;5039867;28;20072;-75
2021/06/14 11:15:48;;;;;;;11.20;10.23;;;30.20;96.70;;;;;;5034010;28;20304;-74
2021/06/14 11:18:26;;;;;;;11.00;9.95;;;30.20;96.70;;;;;;5040859;28;20082;-74
2021/06/14 11:21:06;;;;;;;9.68;8.85;;;30.40;96.70;;;;;;5037373;28;20454;-75
2021/06/14 11:23:37;;;;;;;10.43;9.52;;;30.50;96.70;;;;;;5041939;28;20178;-74
2021/06/14 11:26:06;;;;;;;11.05;10.00;;;30.60;96.70;;;;;;5039030;28;20498;-74
2021/06/14 11:28:36;;;;;;;10.27;9.38;;;30.80;96.50;;;;;;5044264;28;20521;-75
2021/06/14 11:31:14;;;;;;;10.32;9.32;;;30.90;96.20;;;;;;5039753;28;20041;-74
2021/06/14 11:33:45;;;;;;;10.52;9.45;;;31.10;95.20;;;;;;5037145;28;20558;-74
2021/06/14 11:36:15;;;;;;;10.32;9.52;;;31.20;94.90;;;;;;5040685;28;20525;-74
2021/06/14 11:38:43;;;;;;;10.95;9.95;;;31.20;96.10;;;;;;5022212;28;20045;-74
2021/06/14 11:41:12;;;;;;;10.98;10.10;;;31.00;96.50;;;;;;5036378;28;20486;-75
2021/06/14 11:43:40;;;;;;;10.88;9.85;;;31.10;96.50;;;;;;5038164;28;20128;-74
2021/06/14 11:46:18;;;;;;;11.82;9.43;;;31.00;96.70;;;;;;5041139;28;20036;-74
2021/06/14 11:48:51;;;;;;;10.10;9.25;;;31.20;95.90;;;;;;5040150;28;20036;-74
2021/06/14 11:51:19;;;;;;;11.13;9.30;;;31.30;95.40;;;;;;5040854;28;20045;-75
2021/06/14 11:53:53;;;;;;;11.52;9.20;;;31.50;95.20;;;;;;5041127;28;20646;-74
2021/06/14 11:56:23;;;;;;;10.27;9.32;;;31.50;93.80;;;;;;5039962;28;20065;-74
2021/06/14 11:58:52;;;;;;;9.95;9.05;;;31.50;93.70;;;;;;5038252;28;20033;-74
2021/06/14 12:01:23;;;;;;;9.43;8.52;;;31.50;94.40;;;;;;5044268;28;20045;-74
2021/06/14 12:03:56;;;;;;;8.40;7.55;;;31.70;92.40;;;;;;5037718;28;20796;-74
2021/06/14 12:06:25;;;;;;;8.82;8.00;;;31.70;91.20;;;;;;5038827;28;20051;-75
2021/06/14 12:09:05;;;;;;;8.45;7.65;;;31.80;91.10;;;;;;5021042;28;20579;-75
2021/06/14 12:11:33;;;;;;;8.55;7.75;;;31.70;90.90;;;;;;5042939;28;20060;-74
2021/06/14 12:14:10;;;;;;;8.85;8.15;;;31.70;90.10;;;;;;5043908;28;20646;-74
2021/06/14 12:16:39;;;;;;;9.65;8.77;;;31.90;90.40;;;;;;5040667;28;20060;-75
2021/06/14 12:19:09;;;;;;;10.07;8.90;;;32.00;90.50;;;;;;5044862;28;20071;-73
2021/06/14 12:21:37;;;;;;;9.05;8.25;;;32.20;90.70;;;;;;5043711;28;20040;-74
2021/06/14 12:24:15;;;;;;;9.48;8.65;;;32.40;90.60;;;;;;5045873;28;20858;-74
2021/06/14 12:26:44;;;;;;;10.02;9.00;;;32.60;89.60;;;;;;5045063;28;20040;-74
2021/06/14 12:29:18;;;;;;;10.27;9.48;;;32.60;89.30;;;;;;5048050;28;20051;-73
2021/06/14 12:31:46;;;;;;;11.02;10.00;;;32.80;90.30;;;;;;5045491;28;20057;-74
2021/06/14 12:34:26;;;;;;;10.20;9.40;;;32.60;89.40;;;;;;5023414;28;20049;-73
2021/06/14 12:36:59;;;;;;;10.52;8.85;;;32.60;90.20;;;;;;5059698;28;20395;-73
2021/06/14 12:39:27;;;;;;;9.95;9.05;;;32.80;89.30;;;;;;5042255;28;20040;-73
2021/06/14 12:41:55;;;;;;;10.07;9.18;;;32.70;90.70;;;;;;5041346;28;20059;-73
2021/06/14 12:44:23;;;;;;;9.25;8.45;;;32.60;91.30;;;;;;5042152;28;20394;-73
2021/06/14 12:46:51;;;;;;;9.02;8.30;;;32.30;91.70;;;;;;5044470;28;20047;-73
2021/06/14 12:49:25;;;;;;;8.85;7.97;;;32.20;91.50;;;;;;5041801;28;20033;-73
2021/06/14 12:51:53;;;;;;;8.55;7.72;;;32.10;91.60;;;;;;5044081;28;20462;-73
2021/06/14 12:54:22;;;;;;;8.63;7.60;;;32.40;92.10;;;;;;5042128;28;20063;-73
2021/06/14 12:56:52;;;;;;;8.40;7.63;;;32.50;90.70;;;;;;5038602;28;20053;-73
2021/06/14 12:59:21;;;;;;;8.25;7.55;;;32.20;91.30;;;;;;5041260;28;20119;-73
2021/06/14 13:01:49;;;;;;;8.60;7.68;;;32.30;91.40;;;;;;5041018;28;20037;-73
2021/06/14 13:04:18;;;;;;;7.25;6.65;;;32.40;90.70;;;;;;5043480;28;20494;-73
2021/06/14 13:06:48;;;;;;;8.07;7.28;;;32.60;90.40;;;;;;5043306;28;20140;-72
2021/06/14 13:09:19;;;;;;;7.32;6.53;;;32.40;90.40;;;;;;5040978;28;20510;-73
2021/06/14 13:11:50;;;;;;;7.07;6.35;;;32.50;91.10;;;;;;5043348;28;20037;-73
2021/06/14 13:14:28;;;;;;;7.43;6.72;;;32.40;90.40;;;;;;5026330;28;20145;-73
2021/06/14 13:16:57;;;;;;;7.97;6.97;;;32.50;91.30;;;;;;5044865;28;20440;-73
2021/06/14 13:19:27;;;;;;;7.47;6.13;;;32.30;90.40;;;;;;5044452;28;20617;-73
2021/06/14 13:22:10;;;;;;;7.75;5.78;;;32.40;90.30;;;;;;5039881;28;20045;-73
2021/06/14 13:24:44;;;;;;;6.50;5.82;;;32.60;89.40;;;;;;5035249;28;20465;-73